sensor_id;sensor_type;location;lat;lon;timestamp;temperature;humidity
5346;DHT22;2695;49.444;11.054;2022-12-20T00:01:11;2.70;99.90
5346;DHT22;2695;49.444;11.054;2022-12-20T00:03:40;2.70;99.90
5346;DHT22;2695;49.444;11.054;2022-12-20T00:06:10;2.60;99.90
5346;DHT22;2695;49.444;11.054;2022-12-20T00:08:39;2.70;99.90
5346;DHT22;2695;49.444;11.054;2022-12-20T00:11:08;2.70;99.90
5346;DHT22;2695;49.444;11.054;2022-12-20T00:13:36;2.70;99.90
5346;DHT22;2695;49.444;11.054;2022-12-20T00:16:06;2.70;99.90
5346;DHT22;2695;49.444;11.054;2022-12-20T00:18:36;2.80;99.90
5346;DHT22;2695;49.444;11.054;2022-12-20T00:21:06;2.80;99.90
5346;DHT22;2695;49.444;11.054;2022-12-20T00:23:35;2.80;99.90
5346;DHT22;2695;49.444;11.054;2022-12-20T00:26:05;2.80;99.90
5346;DHT22;2695;49.444;11.054;2022-12-20T00:28:34;2.70;99.90
5346;DHT22;2695;49.444;11.054;2022-12-20T00:31:03;2.80;99.90
5346;DHT22;2695;49.444;11.054;2022-12-20T00:33:31;2.70;99.90
5346;DHT22;2695;49.444;11.054;2022-12-20T00:36:01;2.60;99.90
5346;DHT22;2695;49.444;11.054;2022-12-20T00:38:29;2.60;99.90
5346;DHT22;2695;49.444;11.054;2022-12-20T00:40:59;2.50;99.90
5346;DHT22;2695;49.444;11.054;2022-12-20T00:43:27;2.60;99.90
5346;DHT22;2695;49.444;11.054;2022-12-20T00:45:56;2.50;99.90
5346;DHT22;2695;49.444;11.054;2022-12-20T00:48:24;2.60;99.90
5346;DHT22;2695;49.444;11.054;2022-12-20T00:50:57;2.50;99.90
5346;DHT22;2695;49.444;11.054;2022-12-20T00:53:27;2.60;99.90
5346;DHT22;2695;49.444;11.054;2022-12-20T00:55:56;2.60;99.90
5346;DHT22;2695;49.444;11.054;2022-12-20T00:58:24;2.70;99.90
5346;DHT22;2695;49.444;11.054;2022-12-20T01:00:53;2.70;99.90
5346;DHT22;2695;49.444;11.054;2022-12-20T01:03:23;2.70;99.90
5346;DHT22;2695;49.444;11.054;2022-12-20T01:05:52;2.70;99.90
5346;DHT22;2695;49.444;11.054;2022-12-20T01:08:20;2.70;99.90
5346;DHT22;2695;49.444;11.054;2022-12-20T01:10:58;2.50;99.90
5346;DHT22;2695;49.444;11.054;2022-12-20T01:13:27;2.60;99.90
5346;DHT22;2695;49.444;11.054;2022-12-20T01:15:56;2.60;99.90
5346;DHT22;2695;49.444;11.054;2022-12-20T01:18:24;2.60;99.90
5346;DHT22;2695;49.444;11.054;2022-12-20T01:21:00;2.60;99.90
5346;DHT22;2695;49.444;11.054;2022-12-20T01:23:28;2.70;99.90
5346;DHT22;2695;49.444;11.054;2022-12-20T01:25:58;2.70;99.90
5346;DHT22;2695;49.444;11.054;2022-12-20T01:28:27;2.70;99.90
5346;DHT22;2695;49.444;11.054;2022-12-20T01:30:56;2.70;99.90
5346;DHT22;2695;49.444;11.054;2022-12-20T01:33:24;2.70;99.90
5346;DHT22;2695;49.444;11.054;2022-12-20T01:35:56;2.60;99.90
5346;DHT22;2695;49.444;11.054;2022-12-20T01:38:25;2.60;99.90
5346;DHT22;2695;49.444;11.054;2022-12-20T01:40:54;2.60;99.90
5346;DHT22;2695;49.444;11.054;2022-12-20T01:43:28;2.60;99.90
5346;DHT22;2695;49.444;11.054;2022-12-20T01:46:11;2.50;99.90
5346;DHT22;2695;49.444;11.054;2022-12-20T01:48:40;2.50;99.90
5346;DHT22;2695;49.444;11.054;2022-12-20T01:51:09;2.40;99.90
5346;DHT22;2695;49.444;11.054;2022-12-20T01:53:38;2.40;99.90
5346;DHT22;2695;49.444;11.054;2022-12-20T01:56:06;2.40;99.90
5346;DHT22;2695;49.444;11.054;2022-12-20T01:58:38;2.50;99.90
5346;DHT22;2695;49.444;11.054;2022-12-20T02:01:06;2.40;99.90
5346;DHT22;2695;49.444;11.054;2022-12-20T02:03:34;2.40;99.90
5346;DHT22;2695;49.444;11.054;2022-12-20T02:06:17;2.40;99.90
5346;DHT22;2695;49.444;11.054;2022-12-20T02:08:47;2.30;99.90
5346;DHT22;2695;49.444;11.054;2022-12-20T02:11:28;2.30;99.90
5346;DHT22;2695;49.444;11.054;2022-12-20T02:14:07;2.30;99.90
5346;DHT22;2695;49.444;11.054;2022-12-20T02:16:42;2.30;99.90
5346;DHT22;2695;49.444;11.054;2022-12-20T02:19:24;2.20;99.90
5346;DHT22;2695;49.444;11.054;2022-12-20T02:21:58;2.30;99.90
5346;DHT22;2695;49.444;11.054;2022-12-20T02:27:42;2.30;99.90
5346;DHT22;2695;49.444;11.054;2022-12-20T02:30:15;2.40;99.90
5346;DHT22;2695;49.444;11.054;2022-12-20T02:32:49;2.40;99.90
5346;DHT22;2695;49.444;11.054;2022-12-20T02:35:22;2.40;99.90
5346;DHT22;2695;49.444;11.054;2022-12-20T02:37:51;2.40;99.90
5346;DHT22;2695;49.444;11.054;2022-12-20T02:40:23;2.40;99.90
5346;DHT22;2695;49.444;11.054;2022-12-20T02:42:54;2.50;99.90
5346;DHT22;2695;49.444;11.054;2022-12-20T02:45:26;2.50;99.90
5346;DHT22;2695;49.444;11.054;2022-12-20T02:47:58;2.40;99.90
5346;DHT22;2695;49.444;11.054;2022-12-20T02:50:30;2.50;99.90
5346;DHT22;2695;49.444;11.054;2022-12-20T02:52:59;2.50;99.90
5346;DHT22;2695;49.444;11.054;2022-12-20T02:55:32;2.50;99.90
5346;DHT22;2695;49.444;11.054;2022-12-20T02:58:08;2.60;99.90
5346;DHT22;2695;49.444;11.054;2022-12-20T03:00:41;2.60;99.90
5346;DHT22;2695;49.444;11.054;2022-12-20T03:03:10;2.60;99.90
5346;DHT22;2695;49.444;11.054;2022-12-20T03:05:51;2.50;99.90
5346;DHT22;2695;49.444;11.054;2022-12-20T03:08:20;2.50;99.90
5346;DHT22;2695;49.444;11.054;2022-12-20T03:10:49;2.40;99.90
5346;DHT22;2695;49.444;11.054;2022-12-20T03:13:18;2.50;99.90
5346;DHT22;2695;49.444;11.054;2022-12-20T03:15:48;2.30;99.90
5346;DHT22;2695;49.444;11.054;2022-12-20T03:18:16;2.30;99.90
5346;DHT22;2695;49.444;11.054;2022-12-20T03:20:44;2.30;99.90
5346;DHT22;2695;49.444;11.054;2022-12-20T03:23:12;2.30;99.90
5346;DHT22;2695;49.444;11.054;2022-12-20T03:25:40;2.30;99.90
5346;DHT22;2695;49.444;11.054;2022-12-20T03:28:08;2.30;99.90
5346;DHT22;2695;49.444;11.054;2022-12-20T03:30:36;2.30;99.90
5346;DHT22;2695;49.444;11.054;2022-12-20T03:33:05;2.30;99.90
5346;DHT22;2695;49.444;11.054;2022-12-20T03:35:34;2.30;99.90
5346;DHT22;2695;49.444;11.054;2022-12-20T03:38:02;2.30;99.90
5346;DHT22;2695;49.444;11.054;2022-12-20T03:40:30;2.30;99.90
5346;DHT22;2695;49.444;11.054;2022-12-20T03:42:58;2.40;99.90
5346;DHT22;2695;49.444;11.054;2022-12-20T03:45:26;2.40;99.90
5346;DHT22;2695;49.444;11.054;2022-12-20T03:47:54;2.50;99.90
5346;DHT22;2695;49.444;11.054;2022-12-20T03:50:23;2.50;99.90
5346;DHT22;2695;49.444;11.054;2022-12-20T03:52:51;2.50;99.90
5346;DHT22;2695;49.444;11.054;2022-12-20T03:55:19;2.60;99.90
5346;DHT22;2695;49.444;11.054;2022-12-20T03:57:47;2.50;99.90
5346;DHT22;2695;49.444;11.054;2022-12-20T04:00:16;2.60;99.90
5346;DHT22;2695;49.444;11.054;2022-12-20T04:02:45;2.60;99.90
5346;DHT22;2695;49.444;11.054;2022-12-20T04:05:13;2.60;99.90
5346;DHT22;2695;49.444;11.054;2022-12-20T04:07:43;2.60;99.90
5346;DHT22;2695;49.444;11.054;2022-12-20T04:10:12;2.60;99.90
5346;DHT22;2695;49.444;11.054;2022-12-20T04:12:40;2.60;99.90
5346;DHT22;2695;49.444;11.054;2022-12-20T04:15:08;2.60;99.90
5346;DHT22;2695;49.444;11.054;2022-12-20T04:17:36;2.50;99.90
5346;DHT22;2695;49.444;11.054;2022-12-20T04:20:06;2.50;99.90
5346;DHT22;2695;49.444;11.054;2022-12-20T04:22:47;2.50;99.90
5346;DHT22;2695;49.444;11.054;2022-12-20T04:25:17;2.50;99.90
5346;DHT22;2695;49.444;11.054;2022-12-20T04:27:45;2.50;99.90
5346;DHT22;2695;49.444;11.054;2022-12-20T04:30:14;2.50;99.90
5346;DHT22;2695;49.444;11.054;2022-12-20T04:32:42;2.50;99.90
5346;DHT22;2695;49.444;11.054;2022-12-20T04:35:10;3.10;99.90
5346;DHT22;2695;49.444;11.054;2022-12-20T04:37:38;2.50;99.90
5346;DHT22;2695;49.444;11.054;2022-12-20T04:40:09;2.50;99.90
5346;DHT22;2695;49.444;11.054;2022-12-20T04:42:37;2.50;99.90
5346;DHT22;2695;49.444;11.054;2022-12-20T04:45:06;2.50;99.90
5346;DHT22;2695;49.444;11.054;2022-12-20T04:47:34;2.60;99.90
5346;DHT22;2695;49.444;11.054;2022-12-20T04:50:02;2.60;99.90
5346;DHT22;2695;49.444;11.054;2022-12-20T04:52:30;2.60;99.90
5346;DHT22;2695;49.444;11.054;2022-12-20T04:55:17;2.50;99.90
5346;DHT22;2695;49.444;11.054;2022-12-20T04:57:45;2.50;99.90
5346;DHT22;2695;49.444;11.054;2022-12-20T05:00:13;2.50;99.90
5346;DHT22;2695;49.444;11.054;2022-12-20T05:02:43;2.50;99.90
5346;DHT22;2695;49.444;11.054;2022-12-20T05:05:11;2.50;99.90
5346;DHT22;2695;49.444;11.054;2022-12-20T05:07:39;2.50;99.90
5346;DHT22;2695;49.444;11.054;2022-12-20T05:10:08;2.50;99.90
5346;DHT22;2695;49.444;11.054;2022-12-20T05:12:38;2.50;99.90
5346;DHT22;2695;49.444;11.054;2022-12-20T05:15:07;2.50;99.90
5346;DHT22;2695;49.444;11.054;2022-12-20T05:17:35;2.50;99.90
5346;DHT22;2695;49.444;11.054;2022-12-20T05:20:04;2.50;99.90
5346;DHT22;2695;49.444;11.054;2022-12-20T05:22:33;2.50;99.90
5346;DHT22;2695;49.444;11.054;2022-12-20T05:25:18;2.50;99.90
5346;DHT22;2695;49.444;11.054;2022-12-20T05:28:05;2.40;99.90
5346;DHT22;2695;49.444;11.054;2022-12-20T05:30:33;2.40;99.90
5346;DHT22;2695;49.444;11.054;2022-12-20T05:33:01;2.40;99.90
5346;DHT22;2695;49.444;11.054;2022-12-20T05:35:29;2.40;99.90
5346;DHT22;2695;49.444;11.054;2022-12-20T05:37:57;2.50;99.90
5346;DHT22;2695;49.444;11.054;2022-12-20T05:40:25;2.50;99.90
5346;DHT22;2695;49.444;11.054;2022-12-20T05:42:54;2.50;99.90
5346;DHT22;2695;49.444;11.054;2022-12-20T05:45:23;2.50;99.90
5346;DHT22;2695;49.444;11.054;2022-12-20T05:47:51;2.50;99.90
5346;DHT22;2695;49.444;11.054;2022-12-20T05:50:19;2.60;99.90
5346;DHT22;2695;49.444;11.054;2022-12-20T05:52:48;2.60;99.90
5346;DHT22;2695;49.444;11.054;2022-12-20T05:55:16;2.60;99.90
5346;DHT22;2695;49.444;11.054;2022-12-20T05:57:44;2.60;99.90
5346;DHT22;2695;49.444;11.054;2022-12-20T06:00:13;2.50;99.90
5346;DHT22;2695;49.444;11.054;2022-12-20T06:02:43;2.60;99.90
5346;DHT22;2695;49.444;11.054;2022-12-20T06:05:11;2.50;99.90
5346;DHT22;2695;49.444;11.054;2022-12-20T06:07:39;2.50;99.90
5346;DHT22;2695;49.444;11.054;2022-12-20T06:10:09;2.50;99.90
5346;DHT22;2695;49.444;11.054;2022-12-20T06:12:37;2.60;99.90
5346;DHT22;2695;49.444;11.054;2022-12-20T06:15:06;2.60;99.90
5346;DHT22;2695;49.444;11.054;2022-12-20T06:17:34;2.60;99.90
5346;DHT22;2695;49.444;11.054;2022-12-20T06:20:05;2.70;99.90
5346;DHT22;2695;49.444;11.054;2022-12-20T06:22:34;2.70;99.90
5346;DHT22;2695;49.444;11.054;2022-12-20T06:25:03;2.70;99.90
5346;DHT22;2695;49.444;11.054;2022-12-20T06:27:33;2.70;99.90
5346;DHT22;2695;49.444;11.054;2022-12-20T06:30:01;2.80;99.90
5346;DHT22;2695;49.444;11.054;2022-12-20T06:32:29;3.20;99.90
5346;DHT22;2695;49.444;11.054;2022-12-20T06:34:57;2.50;99.90
5346;DHT22;2695;49.444;11.054;2022-12-20T06:37:26;2.80;99.90
5346;DHT22;2695;49.444;11.054;2022-12-20T06:39:54;2.90;99.90
5346;DHT22;2695;49.444;11.054;2022-12-20T06:42:22;2.90;99.90
5346;DHT22;2695;49.444;11.054;2022-12-20T06:44:53;2.90;99.90
5346;DHT22;2695;49.444;11.054;2022-12-20T06:47:22;3.00;99.90
5346;DHT22;2695;49.444;11.054;2022-12-20T06:49:50;3.00;99.90
5346;DHT22;2695;49.444;11.054;2022-12-20T06:52:18;3.00;99.90
5346;DHT22;2695;49.444;11.054;2022-12-20T06:54:47;3.10;99.90
5346;DHT22;2695;49.444;11.054;2022-12-20T06:57:15;3.00;99.90
5346;DHT22;2695;49.444;11.054;2022-12-20T06:59:43;3.10;99.90
5346;DHT22;2695;49.444;11.054;2022-12-20T07:02:11;3.10;99.90
5346;DHT22;2695;49.444;11.054;2022-12-20T07:04:40;3.10;99.90
5346;DHT22;2695;49.444;11.054;2022-12-20T07:07:08;3.00;99.90
5346;DHT22;2695;49.444;11.054;2022-12-20T07:09:38;3.00;99.90
5346;DHT22;2695;49.444;11.054;2022-12-20T07:12:09;3.00;99.90
5346;DHT22;2695;49.444;11.054;2022-12-20T07:14:37;3.10;99.90
5346;DHT22;2695;49.444;11.054;2022-12-20T07:17:05;3.10;99.90
5346;DHT22;2695;49.444;11.054;2022-12-20T07:19:34;3.10;99.90
5346;DHT22;2695;49.444;11.054;2022-12-20T07:22:03;3.10;99.90
5346;DHT22;2695;49.444;11.054;2022-12-20T07:24:31;3.60;99.90
5346;DHT22;2695;49.444;11.054;2022-12-20T07:26:59;3.10;99.90
5346;DHT22;2695;49.444;11.054;2022-12-20T07:29:29;3.10;99.90
5346;DHT22;2695;49.444;11.054;2022-12-20T07:31:58;3.20;99.90
5346;DHT22;2695;49.444;11.054;2022-12-20T07:34:26;3.10;99.90
5346;DHT22;2695;49.444;11.054;2022-12-20T07:36:54;3.10;99.90
5346;DHT22;2695;49.444;11.054;2022-12-20T07:39:22;3.10;99.90
5346;DHT22;2695;49.444;11.054;2022-12-20T07:41:52;3.20;99.90
5346;DHT22;2695;49.444;11.054;2022-12-20T07:44:20;3.20;99.90
5346;DHT22;2695;49.444;11.054;2022-12-20T07:46:50;3.30;99.90
5346;DHT22;2695;49.444;11.054;2022-12-20T07:49:18;3.30;99.90
5346;DHT22;2695;49.444;11.054;2022-12-20T07:51:48;3.20;99.90
5346;DHT22;2695;49.444;11.054;2022-12-20T07:54:20;3.30;99.90
5346;DHT22;2695;49.444;11.054;2022-12-20T07:56:53;3.30;99.90
5346;DHT22;2695;49.444;11.054;2022-12-20T07:59:27;3.30;99.90
5346;DHT22;2695;49.444;11.054;2022-12-20T08:01:57;3.30;99.90
5346;DHT22;2695;49.444;11.054;2022-12-20T08:04:31;3.30;99.90
5346;DHT22;2695;49.444;11.054;2022-12-20T08:07:01;3.30;99.90
5346;DHT22;2695;49.444;11.054;2022-12-20T08:09:33;3.30;99.90
5346;DHT22;2695;49.444;11.054;2022-12-20T08:12:02;3.30;99.90
5346;DHT22;2695;49.444;11.054;2022-12-20T08:14:30;3.30;99.90
5346;DHT22;2695;49.444;11.054;2022-12-20T08:17:00;3.30;99.90
5346;DHT22;2695;49.444;11.054;2022-12-20T08:19:38;3.40;99.90
5346;DHT22;2695;49.444;11.054;2022-12-20T08:22:07;3.40;99.90
5346;DHT22;2695;49.444;11.054;2022-12-20T08:24:36;3.40;99.90
5346;DHT22;2695;49.444;11.054;2022-12-20T08:27:05;3.40;99.90
5346;DHT22;2695;49.444;11.054;2022-12-20T08:29:33;3.50;99.90
5346;DHT22;2695;49.444;11.054;2022-12-20T08:32:03;3.60;99.90
5346;DHT22;2695;49.444;11.054;2022-12-20T08:34:31;3.60;99.90
5346;DHT22;2695;49.444;11.054;2022-12-20T08:36:59;3.60;99.90
5346;DHT22;2695;49.444;11.054;2022-12-20T08:39:27;3.60;99.90
5346;DHT22;2695;49.444;11.054;2022-12-20T08:41:55;3.70;99.90
5346;DHT22;2695;49.444;11.054;2022-12-20T08:44:23;3.70;99.90
5346;DHT22;2695;49.444;11.054;2022-12-20T08:46:51;3.70;99.90
5346;DHT22;2695;49.444;11.054;2022-12-20T08:49:21;3.80;99.90
5346;DHT22;2695;49.444;11.054;2022-12-20T08:51:49;3.80;99.90
5346;DHT22;2695;49.444;11.054;2022-12-20T08:54:17;3.80;99.90
5346;DHT22;2695;49.444;11.054;2022-12-20T08:56:45;3.80;99.90
5346;DHT22;2695;49.444;11.054;2022-12-20T08:59:14;3.80;99.90
5346;DHT22;2695;49.444;11.054;2022-12-20T09:01:42;3.80;99.90
5346;DHT22;2695;49.444;11.054;2022-12-20T09:04:10;3.90;99.90
5346;DHT22;2695;49.444;11.054;2022-12-20T09:06:40;3.90;99.90
5346;DHT22;2695;49.444;11.054;2022-12-20T09:09:08;4.00;99.90
5346;DHT22;2695;49.444;11.054;2022-12-20T09:11:36;4.10;99.90
5346;DHT22;2695;49.444;11.054;2022-12-20T09:14:05;4.20;99.90
5346;DHT22;2695;49.444;11.054;2022-12-20T09:16:33;4.20;99.90
5346;DHT22;2695;49.444;11.054;2022-12-20T09:19:02;4.30;99.90
5346;DHT22;2695;49.444;11.054;2022-12-20T09:21:33;4.40;99.90
5346;DHT22;2695;49.444;11.054;2022-12-20T09:24:03;4.50;99.90
5346;DHT22;2695;49.444;11.054;2022-12-20T09:26:32;4.60;99.90
5346;DHT22;2695;49.444;11.054;2022-12-20T09:29:01;4.60;99.90
5346;DHT22;2695;49.444;11.054;2022-12-20T09:31:29;4.70;99.90
5346;DHT22;2695;49.444;11.054;2022-12-20T09:33:58;4.70;99.90
5346;DHT22;2695;49.444;11.054;2022-12-20T09:36:28;4.70;99.90
5346;DHT22;2695;49.444;11.054;2022-12-20T09:38:57;4.90;99.90
5346;DHT22;2695;49.444;11.054;2022-12-20T09:41:30;4.80;99.90
5346;DHT22;2695;49.444;11.054;2022-12-20T09:44:04;4.70;99.90
5346;DHT22;2695;49.444;11.054;2022-12-20T09:46:33;4.60;99.90
5346;DHT22;2695;49.444;11.054;2022-12-20T09:49:02;4.60;99.90
5346;DHT22;2695;49.444;11.054;2022-12-20T09:51:43;4.60;99.90
5346;DHT22;2695;49.444;11.054;2022-12-20T09:54:20;4.60;99.90
5346;DHT22;2695;49.444;11.054;2022-12-20T09:57:02;4.60;99.90
5346;DHT22;2695;49.444;11.054;2022-12-20T09:59:34;4.60;99.90
5346;DHT22;2695;49.444;11.054;2022-12-20T10:02:11;4.60;99.90
5346;DHT22;2695;49.444;11.054;2022-12-20T10:05:00;4.60;99.90
5346;DHT22;2695;49.444;11.054;2022-12-20T10:07:37;4.60;99.90
5346;DHT22;2695;49.444;11.054;2022-12-20T10:10:38;4.50;99.90
5346;DHT22;2695;49.444;11.054;2022-12-20T10:13:22;4.40;99.90
5346;DHT22;2695;49.444;11.054;2022-12-20T10:15:59;4.40;99.90
5346;DHT22;2695;49.444;11.054;2022-12-20T10:18:43;4.40;99.90
5346;DHT22;2695;49.444;11.054;2022-12-20T10:21:19;4.50;99.90
5346;DHT22;2695;49.444;11.054;2022-12-20T10:23:57;4.50;99.90
5346;DHT22;2695;49.444;11.054;2022-12-20T10:26:27;4.60;99.90
5346;DHT22;2695;49.444;11.054;2022-12-20T10:28:56;4.70;99.90
5346;DHT22;2695;49.444;11.054;2022-12-20T10:31:25;4.70;99.90
5346;DHT22;2695;49.444;11.054;2022-12-20T10:33:53;4.80;99.90
5346;DHT22;2695;49.444;11.054;2022-12-20T10:36:25;4.90;99.90
5346;DHT22;2695;49.444;11.054;2022-12-20T10:38:57;5.00;99.90
5346;DHT22;2695;49.444;11.054;2022-12-20T10:41:27;5.10;99.90
5346;DHT22;2695;49.444;11.054;2022-12-20T10:43:59;5.20;99.90
5346;DHT22;2695;49.444;11.054;2022-12-20T10:46:36;5.20;99.90
5346;DHT22;2695;49.444;11.054;2022-12-20T10:49:26;5.30;99.90
5346;DHT22;2695;49.444;11.054;2022-12-20T10:51:59;5.30;99.90
5346;DHT22;2695;49.444;11.054;2022-12-20T10:54:30;5.20;99.90
5346;DHT22;2695;49.444;11.054;2022-12-20T10:57:00;5.20;99.90
5346;DHT22;2695;49.444;11.054;2022-12-20T10:59:32;5.20;99.90
5346;DHT22;2695;49.444;11.054;2022-12-20T11:02:02;5.20;99.90
5346;DHT22;2695;49.444;11.054;2022-12-20T11:04:57;5.20;99.90
5346;DHT22;2695;49.444;11.054;2022-12-20T11:07:28;5.20;99.90
5346;DHT22;2695;49.444;11.054;2022-12-20T11:09:59;5.20;99.90
5346;DHT22;2695;49.444;11.054;2022-12-20T11:12:27;5.30;99.90
5346;DHT22;2695;49.444;11.054;2022-12-20T11:15:10;5.30;99.90
5346;DHT22;2695;49.444;11.054;2022-12-20T11:17:42;5.30;99.90
5346;DHT22;2695;49.444;11.054;2022-12-20T11:20:27;5.40;99.90
5346;DHT22;2695;49.444;11.054;2022-12-20T11:23:06;5.70;99.90
5346;DHT22;2695;49.444;11.054;2022-12-20T11:25:49;5.90;99.90
5346;DHT22;2695;49.444;11.054;2022-12-20T11:28:42;5.90;99.90
5346;DHT22;2695;49.444;11.054;2022-12-20T11:31:20;6.10;99.90
5346;DHT22;2695;49.444;11.054;2022-12-20T11:33:58;6.10;99.90
5346;DHT22;2695;49.444;11.054;2022-12-20T11:36:39;6.10;99.90
5346;DHT22;2695;49.444;11.054;2022-12-20T11:39:17;6.00;99.90
5346;DHT22;2695;49.444;11.054;2022-12-20T11:41:54;5.90;99.90
5346;DHT22;2695;49.444;11.054;2022-12-20T11:44:32;6.00;99.90
5346;DHT22;2695;49.444;11.054;2022-12-20T11:47:40;6.10;99.90
5346;DHT22;2695;49.444;11.054;2022-12-20T11:50:19;6.00;99.90
5346;DHT22;2695;49.444;11.054;2022-12-20T11:52:59;6.10;99.90
5346;DHT22;2695;49.444;11.054;2022-12-20T11:55:30;6.10;99.90
5346;DHT22;2695;49.444;11.054;2022-12-20T11:58:03;6.10;99.90
5346;DHT22;2695;49.444;11.054;2022-12-20T12:00:49;6.10;99.90
5346;DHT22;2695;49.444;11.054;2022-12-20T12:03:27;6.00;99.90
5346;DHT22;2695;49.444;11.054;2022-12-20T12:05:59;5.90;99.90
5346;DHT22;2695;49.444;11.054;2022-12-20T12:08:37;5.80;99.90
5346;DHT22;2695;49.444;11.054;2022-12-20T12:11:11;5.70;99.90
5346;DHT22;2695;49.444;11.054;2022-12-20T12:14:02;5.70;99.90
5346;DHT22;2695;49.444;11.054;2022-12-20T12:16:34;6.00;99.90
5346;DHT22;2695;49.444;11.054;2022-12-20T12:19:08;5.70;99.90
5346;DHT22;2695;49.444;11.054;2022-12-20T12:21:41;5.80;99.90
5346;DHT22;2695;49.444;11.054;2022-12-20T12:24:18;5.90;99.90
5346;DHT22;2695;49.444;11.054;2022-12-20T12:26:48;6.20;99.90
5346;DHT22;2695;49.444;11.054;2022-12-20T12:29:17;6.20;99.90
5346;DHT22;2695;49.444;11.054;2022-12-20T12:31:48;6.40;99.90
5346;DHT22;2695;49.444;11.054;2022-12-20T12:34:29;6.40;99.90
5346;DHT22;2695;49.444;11.054;2022-12-20T12:37:26;6.40;99.90
5346;DHT22;2695;49.444;11.054;2022-12-20T12:43:04;6.30;99.90
5346;DHT22;2695;49.444;11.054;2022-12-20T12:45:40;6.30;99.90
5346;DHT22;2695;49.444;11.054;2022-12-20T12:48:14;6.50;99.90
5346;DHT22;2695;49.444;11.054;2022-12-20T12:50:48;6.60;99.90
5346;DHT22;2695;49.444;11.054;2022-12-20T12:53:19;6.70;99.90
5346;DHT22;2695;49.444;11.054;2022-12-20T12:55:49;6.50;99.90
5346;DHT22;2695;49.444;11.054;2022-12-20T12:58:33;6.50;99.90
5346;DHT22;2695;49.444;11.054;2022-12-20T13:01:04;6.40;99.90
5346;DHT22;2695;49.444;11.054;2022-12-20T13:03:40;6.30;99.90
5346;DHT22;2695;49.444;11.054;2022-12-20T13:06:50;6.30;99.90
5346;DHT22;2695;49.444;11.054;2022-12-20T13:09:36;6.30;99.90
5346;DHT22;2695;49.444;11.054;2022-12-20T13:12:52;6.30;99.90
5346;DHT22;2695;49.444;11.054;2022-12-20T13:15:51;6.40;99.90
5346;DHT22;2695;49.444;11.054;2022-12-20T13:18:26;6.40;99.90
5346;DHT22;2695;49.444;11.054;2022-12-20T13:33:20;6.50;99.90
5346;DHT22;2695;49.444;11.054;2022-12-20T13:35:56;6.60;99.90
5346;DHT22;2695;49.444;11.054;2022-12-20T13:41:39;6.60;99.90
5346;DHT22;2695;49.444;11.054;2022-12-20T13:44:39;6.60;99.90
5346;DHT22;2695;49.444;11.054;2022-12-20T13:47:25;6.50;99.90
5346;DHT22;2695;49.444;11.054;2022-12-20T13:49:59;6.40;99.90
5346;DHT22;2695;49.444;11.054;2022-12-20T13:52:29;6.40;99.90
5346;DHT22;2695;49.444;11.054;2022-12-20T13:54:59;6.30;99.90
5346;DHT22;2695;49.444;11.054;2022-12-20T13:57:38;6.30;99.90
5346;DHT22;2695;49.444;11.054;2022-12-20T14:00:14;6.30;99.90
5346;DHT22;2695;49.444;11.054;2022-12-20T14:02:43;6.60;99.90
5346;DHT22;2695;49.444;11.054;2022-12-20T14:05:15;6.20;99.90
5346;DHT22;2695;49.444;11.054;2022-12-20T14:07:46;6.20;99.90
5346;DHT22;2695;49.444;11.054;2022-12-20T14:10:17;6.20;99.90
5346;DHT22;2695;49.444;11.054;2022-12-20T14:12:48;6.20;99.90
5346;DHT22;2695;49.444;11.054;2022-12-20T14:15:23;6.10;99.90
5346;DHT22;2695;49.444;11.054;2022-12-20T14:17:51;6.00;99.90
5346;DHT22;2695;49.444;11.054;2022-12-20T14:20:30;5.90;99.90
5346;DHT22;2695;49.444;11.054;2022-12-20T14:23:10;5.90;99.90
5346;DHT22;2695;49.444;11.054;2022-12-20T14:25:42;5.90;99.90
5346;DHT22;2695;49.444;11.054;2022-12-20T14:28:18;5.80;99.90
5346;DHT22;2695;49.444;11.054;2022-12-20T14:30:55;5.80;99.90
5346;DHT22;2695;49.444;11.054;2022-12-20T14:33:28;5.80;99.90
5346;DHT22;2695;49.444;11.054;2022-12-20T14:36:07;5.80;99.90
5346;DHT22;2695;49.444;11.054;2022-12-20T14:38:35;5.80;99.90
5346;DHT22;2695;49.444;11.054;2022-12-20T14:41:03;5.70;99.90
5346;DHT22;2695;49.444;11.054;2022-12-20T14:43:33;5.80;99.90
5346;DHT22;2695;49.444;11.054;2022-12-20T14:46:18;5.90;99.90
5346;DHT22;2695;49.444;11.054;2022-12-20T14:48:48;6.00;99.90
5346;DHT22;2695;49.444;11.054;2022-12-20T14:51:31;6.00;99.90
5346;DHT22;2695;49.444;11.054;2022-12-20T14:53:59;6.00;99.90
5346;DHT22;2695;49.444;11.054;2022-12-20T14:56:27;6.00;99.90
5346;DHT22;2695;49.444;11.054;2022-12-20T14:59:04;5.90;99.90
5346;DHT22;2695;49.444;11.054;2022-12-20T15:01:34;5.90;99.90
5346;DHT22;2695;49.444;11.054;2022-12-20T15:04:21;5.90;99.90
5346;DHT22;2695;49.444;11.054;2022-12-20T15:06:50;5.90;99.90
5346;DHT22;2695;49.444;11.054;2022-12-20T15:09:19;5.90;99.90
5346;DHT22;2695;49.444;11.054;2022-12-20T15:11:48;5.90;99.90
5346;DHT22;2695;49.444;11.054;2022-12-20T15:14:35;5.80;99.90
5346;DHT22;2695;49.444;11.054;2022-12-20T15:17:10;5.80;99.90
5346;DHT22;2695;49.444;11.054;2022-12-20T15:19:39;5.70;99.90
5346;DHT22;2695;49.444;11.054;2022-12-20T15:22:13;5.70;99.90
5346;DHT22;2695;49.444;11.054;2022-12-20T15:24:42;5.70;99.90
5346;DHT22;2695;49.444;11.054;2022-12-20T15:27:12;5.70;99.90
5346;DHT22;2695;49.444;11.054;2022-12-20T15:29:40;5.60;99.90
5346;DHT22;2695;49.444;11.054;2022-12-20T15:32:16;5.60;99.90
5346;DHT22;2695;49.444;11.054;2022-12-20T15:34:45;5.60;99.90
5346;DHT22;2695;49.444;11.054;2022-12-20T15:37:14;5.60;99.90
5346;DHT22;2695;49.444;11.054;2022-12-20T15:39:45;5.60;99.90
5346;DHT22;2695;49.444;11.054;2022-12-20T15:42:16;5.50;99.90
5346;DHT22;2695;49.444;11.054;2022-12-20T15:44:45;5.50;99.90
5346;DHT22;2695;49.444;11.054;2022-12-20T15:47:15;5.60;99.90
5346;DHT22;2695;49.444;11.054;2022-12-20T15:49:45;5.50;99.90
5346;DHT22;2695;49.444;11.054;2022-12-20T15:52:21;5.50;99.90
5346;DHT22;2695;49.444;11.054;2022-12-20T15:54:52;5.60;99.90
5346;DHT22;2695;49.444;11.054;2022-12-20T15:57:21;5.50;99.90
5346;DHT22;2695;49.444;11.054;2022-12-20T15:59:49;5.60;99.90
5346;DHT22;2695;49.444;11.054;2022-12-20T16:02:30;5.60;99.90
5346;DHT22;2695;49.444;11.054;2022-12-20T16:04:59;5.50;99.90
5346;DHT22;2695;49.444;11.054;2022-12-20T16:07:27;5.50;99.90
5346;DHT22;2695;49.444;11.054;2022-12-20T16:09:58;5.50;99.90
5346;DHT22;2695;49.444;11.054;2022-12-20T16:12:34;5.40;99.90
5346;DHT22;2695;49.444;11.054;2022-12-20T16:15:05;5.40;99.90
5346;DHT22;2695;49.444;11.054;2022-12-20T16:17:35;5.50;99.90
5346;DHT22;2695;49.444;11.054;2022-12-20T16:20:05;5.40;99.90
5346;DHT22;2695;49.444;11.054;2022-12-20T16:22:34;5.50;99.90
5346;DHT22;2695;49.444;11.054;2022-12-20T16:25:03;5.40;99.90
5346;DHT22;2695;49.444;11.054;2022-12-20T16:27:32;5.40;99.90
5346;DHT22;2695;49.444;11.054;2022-12-20T16:30:00;5.30;99.90
5346;DHT22;2695;49.444;11.054;2022-12-20T16:32:28;5.30;99.90
5346;DHT22;2695;49.444;11.054;2022-12-20T16:34:57;5.20;99.90
5346;DHT22;2695;49.444;11.054;2022-12-20T16:37:26;5.20;99.90
5346;DHT22;2695;49.444;11.054;2022-12-20T16:39:56;5.10;99.90
5346;DHT22;2695;49.444;11.054;2022-12-20T16:42:35;5.10;99.90
5346;DHT22;2695;49.444;11.054;2022-12-20T16:45:16;5.10;99.90
5346;DHT22;2695;49.444;11.054;2022-12-20T16:47:46;5.00;99.90
5346;DHT22;2695;49.444;11.054;2022-12-20T16:50:16;5.00;99.90
5346;DHT22;2695;49.444;11.054;2022-12-20T16:52:45;4.90;99.90
5346;DHT22;2695;49.444;11.054;2022-12-20T16:55:15;4.80;99.90